Search for airport 
image banner adimage banner adimage banner ad
image banner ad

P09 - Lakehill

Located in Mars, United States

ICAO - P09, IATA -

Data provided by Airmate  

General information

Coordinates: N40°42'29" W80°1'43"
Elevation is 1070 feet MSL.
Magnetic variation is -08° East
View others Airports in Pennsylvania

Operational data

Special qualification required
Current time UTC:
Current local time:
METAR: KBTP 182156Z AUTO 08003KT 9SM CLR 25/06 A3029 RMK AO2 SLP263 T02500061
View NOTAMs / SUP AIP / TFR affecting this airport [VIEW]
Communications frequencies: [VIEW]

Runways:

RWY identifierQFULength (ft)Width (ft)SurfaceLDA (ft)
0540°285075GRASS
23220°285075GRASS

Airport contact information

Address: Mars United States

Satellite view of P09